Wertheim, Germany

6:07 PM CEST on August 30, 2014 (GMT +0200)
Kirschfurt | Change Station
CLOSE
Current Station
Personal Weather Station
Location: Kirschfurt, Bayern
Elevation: 472 ft
Nearby Weather Stations

Elev 472 ft 49.74 °N, 9.32 °E | Updated 12 seconds ago

Mostly Cloudy
Mostly Cloudy
76.3 °F
Feels Like 78 °F
N
0.0
Wind Variable Wind from SW
Gusts 0.0 mph

Today
High -- | Low -- °F
--% Chance of Precip.
Yesterday
High -- | Low -- °F
Precip. -- in
6:34 AM 8:10 PM
Waxing Crescent, 23% visible
Pressure 30.05 in
Visibility 6.2 miles
Clouds Mostly Cloudy 5000 ft
Heat Index 78 °F
Dew Point 32 °F
Humidity 49%
Rainfall -999.00 in
Snow Depth Not available.
UV 1 out of 12
Pollen Not available.
Air Quality Not available.
Flu Activity Not available.
METAR ETIK 301558Z AUTO 28007KT 9999 BKN050 21/12 A3007 RMK AO2 SLP176 T02100119

More Conditions Fewer Conditions

Pressure 30.05 in
Visibility 6.2 miles
Clouds Mostly Cloudy 5000 ft
Heat Index 78 °F
Dew Point 32 °F
Humidity 49%
Rainfall -999.00 in
Snow Depth Not available.
UV 1 out of 12
Pollen Not available.
Air Quality Not available.
Flu Activity Not available.
METAR ETIK 301558Z AUTO 28007KT 9999 BKN050 21/12 A3007 RMK AO2 SLP176 T02100119

More Conditions Fewer Conditions

10-Day Weather Forecast

Almanac

Astronomy

Aug. 30, 2014 Rise Set
Actual Time 6:34 AM CEST 8:10 PM CEST
Civil Twilight 6:00 AM CEST 8:43 PM CEST
Nautical Twilight 5:19 AM CEST 9:24 PM CEST
Astronomical Twilight 4:33 AM CEST 10:09 PM CEST
Moon 11:34 AM CEST 10:03 PM CEST
Length of Visible Light 14h 43m
Length of Day
13h 36m
Tomorrow will be 3m 33s shorter.
Waxing Crescent, 23% of the Moon is Illuminated
Today
Waxing Crescent
Sep 2
First Quarter
Sep 8
Full
Sep 15
Last Quarter
Sep 24
New

Today's Extremes

Country Highs Country Lows

Community

WunderPhotos

Upload Photos

1,748,555 photos uploaded!

WunderBlogs® & News

Nearby

Snow Depth

Not available.

Earthquake Activity

City Distance Mag. Time & Date
No recent earthquake activity has been reported nearby.
Minimum magnitude displayed is 2.5.

Coastal Water Temperatures

Place Temperature
No Stations Reporting

Nearby Weather Stations